Terminal Aerodrome Forecast
Issued by NWS

Home | Current Version | Previous Version | Text Only | Print | Product List | Glossary On
Versions: 1 2 3 4 5 6 7 8 9 10 11 12 13 14 15 16 17 18 19 20 21 22 23
125
FTUS43 KDLH 271330 AAA
TAFBRD
TAF AMD
KBRD 271330Z 2714/2812 29011G18KT P6SM SCT035
     FM271600 31013G21KT P6SM SCT025 OVC035
     FM271800 32015G22KT P6SM -RA OVC025
     FM280000 34011KT P6SM -DZ OVC015
     FM280300 36008KT P6SM SCT009 OVC012=

USA.gov is the U.S. government's official web portal to all federal, state and local government web resources and services.